117 Куст

Карта отелей и гостиниц, располагающихся рядом с аэропортом 117 Куст :

117 Куст Ямало-Ненецкий автономный округ 66° 50' 18.8988" N, 79° 36' 24.3612" E
117 Куст Ямало-Ненецкий автономный округ 66° 50' 18.8988" N, 79° 36' 24.3612" E
Код аэродрома ИКАО
HB66
Код аэродрома RU
ХБ66
Координаты
N66.83858° E079.60677°
Превышение над уровнем моря
40
Основная полоса
Курс магнитный
Длина основной ВПП
Ширина основной ВПП
Покрытие основной ВПП
Освещение ВПП
Тип: 
Вертодром
Класс аэродрома: 
Принадлежность: 
Статус: 
Недействующий
Сайт: 
E-mail аэродрома: 
Страна: 
Россия
Регион: 
Ямало-Ненецкий автономный округ
Город: 
Дополнительная информация: 

Найти трансфер

С помощью этой формы Вы можете найти трансфер из аэропорта 117 Куст в город, аэропорт или вокзал:

Карта места

Javascript is required to view this map.

Погода в аэропортах:

Авиационная погода в Сыктывкаре

Регион: 
Погода METAR: 
UUYY 060700Z 17002MPS 2700 1000W SN OVC004 M18/M20 Q1024 R18/420345 NOSIG RMK QBB120 QFE759/1012
Время наблюдения
2021-12-06T07:00:00Z
Температура C
-18.0
Точка росы
-20.0
Направление ветра
170
Скорость ветра (узлы)
4
Метео видимость
1.68
Явления погоды
SN
Условия полета
LIFR
Аэропорт подробнее: 

Авиационная погода в Екатеринбурге

Регион: 
Погода METAR: 
USSS 060700Z 31006MPS 9999 -SHSN BKN029CB M07/M10 Q1015 R26L/410245 NOSIG RMK QFE741/0988
Время наблюдения
2021-12-06T07:00:00Z
Температура C
-7.0
Точка росы
-10.0
Направление ветра
310
Скорость ветра (узлы)
12
Метео видимость
6.21
Явления погоды
-SHSN
Условия полета
MVFR
Аэропорт подробнее: 

Авиационная погода в Алматы

Регион: 
Погода METAR: 
UAAA 060800Z 02003MPS 5000 BR FU SCT040 BKN100 07/02 Q1021 NOSIG
Время наблюдения
2021-12-06T08:00:00Z
Температура C
7.0
Точка росы
2.0
Направление ветра
20
Скорость ветра (узлы)
6
Метео видимость
3.11
Явления погоды
BR FU
Условия полета
MVFR
Аэропорт подробнее: 

Авиационная погода в Минске

Регион: 
Погода METAR: 
UMMS 060700Z 13003MPS 4300 -SN BR BKN007 OVC011 M03/M04 Q1012 NOSIG
Время наблюдения
2021-12-06T07:00:00Z
Температура C
-3.0
Точка росы
-4.0
Направление ветра
130
Скорость ветра (узлы)
6
Метео видимость
2.67
Явления погоды
-SN BR
Условия полета
IFR
Аэропорт подробнее: